createdAt,value
2022-12-18T00:01:23.362Z,14.07
2022-12-18T00:03:50.372Z,14.50
2022-12-18T00:06:17.732Z,13.88
2022-12-18T00:08:45.143Z,13.38
2022-12-18T00:11:16.314Z,12.55
2022-12-18T00:13:43.132Z,13.23
2022-12-18T00:16:15.629Z,13.60
2022-12-18T00:18:42.861Z,13.30
2022-12-18T00:21:11.089Z,13.27
2022-12-18T00:23:38.522Z,11.18
2022-12-18T00:26:08.816Z,10.40
2022-12-18T00:28:35.302Z,12.37
2022-12-18T00:31:10.294Z,11.30
2022-12-18T00:33:37.520Z,10.32
2022-12-18T00:36:24.836Z,11.23
2022-12-18T00:38:51.494Z,10.02
2022-12-18T00:41:39.204Z,10.00
2022-12-18T00:44:06.973Z,9.73
2022-12-18T00:46:33.442Z,9.63
2022-12-18T00:48:59.952Z,10.65
2022-12-18T00:51:27.520Z,10.55
2022-12-18T00:53:53.973Z,5.97
2022-12-18T00:56:20.420Z,8.43
2022-12-18T00:58:46.812Z,9.27
2022-12-18T01:01:15.738Z,10.25
2022-12-18T01:03:42.345Z,11.02
2022-12-18T01:06:10.951Z,8.00
2022-12-18T01:08:37.374Z,9.82
2022-12-18T01:11:12.824Z,10.52
2022-12-18T01:13:40.753Z,10.23
2022-12-18T01:16:07.701Z,11.02
2022-12-18T01:18:34.258Z,9.50
2022-12-18T01:21:00.786Z,10.98
2022-12-18T01:23:27.236Z,11.43
2022-12-18T01:25:53.677Z,11.68
2022-12-18T01:28:20.418Z,11.75
2022-12-18T01:30:49.290Z,11.30
2022-12-18T01:33:15.822Z,12.30
2022-12-18T01:35:45.619Z,12.75
2022-12-18T01:38:12.068Z,9.73
2022-12-18T01:40:38.568Z,12.43
2022-12-18T01:43:05.081Z,12.17
2022-12-18T01:45:32.574Z,13.48
2022-12-18T01:48:07.165Z,13.05
2022-12-18T01:50:38.370Z,12.65
2022-12-18T01:53:17.026Z,9.13
2022-12-18T01:55:51.827Z,12.13
2022-12-18T01:58:20.033Z,14.27
2022-12-18T02:00:46.879Z,13.23
2022-12-18T02:03:16.788Z,14.35
2022-12-18T02:05:47.383Z,13.52
2022-12-18T02:08:29.189Z,13.80
2022-12-18T02:11:15.453Z,11.55
2022-12-18T02:13:52.167Z,12.38
2022-12-18T02:16:29.093Z,12.80
2022-12-18T02:19:01.275Z,13.30
2022-12-18T02:21:49.015Z,13.33
2022-12-18T02:24:44.632Z,11.55
2022-12-18T02:27:13.610Z,14.38
2022-12-18T02:29:44.971Z,12.20
2022-12-18T02:32:15.567Z,11.98
2022-12-18T02:34:43.334Z,13.60
2022-12-18T02:37:15.007Z,12.95
2022-12-18T02:39:43.213Z,14.18
2022-12-18T02:42:10.039Z,12.55
2022-12-18T02:44:44.411Z,13.25
2022-12-18T02:47:16.167Z,12.67
2022-12-18T02:49:59.999Z,12.52
2022-12-18T02:52:47.540Z,10.02
2022-12-18T02:55:37.160Z,10.55
2022-12-18T02:58:18.342Z,12.00
2022-12-18T03:01:09.790Z,10.97
2022-12-18T03:03:41.077Z,10.43
2022-12-18T03:06:17.441Z,10.98
2022-12-18T03:08:51.176Z,11.00
2022-12-18T03:11:37.763Z,11.05
2022-12-18T03:14:05.047Z,10.53
2022-12-18T03:16:34.643Z,10.43
2022-12-18T03:19:08.539Z,11.43
2022-12-18T03:21:41.427Z,10.18
2022-12-18T03:24:09.201Z,8.52
2022-12-18T03:26:36.818Z,9.07
2022-12-18T03:29:09.050Z,9.88
2022-12-18T03:31:36.014Z,10.20
2022-12-18T03:34:06.896Z,9.73
2022-12-18T03:36:33.337Z,10.15
2022-12-18T03:38:59.922Z,10.17
2022-12-18T03:41:49.738Z,10.45
2022-12-18T03:44:31.441Z,9.73
2022-12-18T03:47:31.549Z,8.65
2022-12-18T03:50:33.227Z,8.40
2022-12-18T03:53:14.839Z,8.77
2022-12-18T03:55:41.757Z,9.20
2022-12-18T03:58:17.464Z,9.38
2022-12-18T04:00:52.276Z,9.52
2022-12-18T04:03:22.689Z,8.45
2022-12-18T04:05:53.852Z,9.63
2022-12-18T04:08:22.702Z,8.43
2022-12-18T04:10:50.507Z,8.02
2022-12-18T04:13:30.264Z,8.63
2022-12-18T04:15:57.112Z,8.20
2022-12-18T04:18:23.548Z,8.23
2022-12-18T04:20:50.041Z,8.63
2022-12-18T04:23:16.477Z,10.30
2022-12-18T04:25:45.337Z,7.97
2022-12-18T04:28:11.829Z,8.65
2022-12-18T04:30:38.290Z,8.17
2022-12-18T04:33:13.241Z,9.50
2022-12-18T04:35:42.698Z,7.18
2022-12-18T04:38:09.731Z,8.02
2022-12-18T04:40:36.776Z,7.70
2022-12-18T04:43:04.302Z,8.10
2022-12-18T04:45:31.961Z,9.07
2022-12-18T04:48:03.267Z,9.20
2022-12-18T04:50:30.479Z,8.23
2022-12-18T04:52:57.496Z,7.63
2022-12-18T04:55:25.526Z,8.70
2022-12-18T04:57:51.938Z,8.18
2022-12-18T05:00:18.554Z,9.35
2022-12-18T05:02:45.166Z,8.40
2022-12-18T05:05:14.584Z,9.00
2022-12-18T05:07:41.040Z,7.90
2022-12-18T05:10:08.599Z,7.20
2022-12-18T05:12:56.657Z,8.02
2022-12-18T05:15:23.126Z,7.82
2022-12-18T05:17:49.544Z,8.70
2022-12-18T05:20:16.081Z,7.80
2022-12-18T05:22:42.644Z,7.55
2022-12-18T05:25:09.457Z,8.05
2022-12-18T05:27:36.114Z,7.78
2022-12-18T05:30:02.737Z,8.10
2022-12-18T05:32:29.184Z,8.10
2022-12-18T05:34:58.141Z,8.02
2022-12-18T05:37:24.686Z,8.13
2022-12-18T05:39:51.114Z,7.30
2022-12-18T05:42:17.531Z,7.10
2022-12-18T05:44:44.815Z,5.63
2022-12-18T05:47:11.233Z,8.40
2022-12-18T05:49:37.641Z,8.65
2022-12-18T05:52:04.205Z,7.07
2022-12-18T05:54:30.666Z,7.80
2022-12-18T05:56:57.076Z,6.20
2022-12-18T05:59:23.607Z,7.90
2022-12-18T06:01:50.122Z,8.75
2022-12-18T06:04:18.929Z,8.95
2022-12-18T06:06:45.396Z,6.75
2022-12-18T06:09:13.081Z,7.20
2022-12-18T06:11:40.841Z,8.35
2022-12-18T06:14:07.943Z,8.18
2022-12-18T06:16:35.708Z,8.25
2022-12-18T06:19:06.321Z,7.15
2022-12-18T06:21:33.197Z,8.03
2022-12-18T06:24:00.758Z,7.40
2022-12-18T06:26:28.549Z,8.10
2022-12-18T06:28:55.399Z,7.88
2022-12-18T06:31:21.935Z,7.72
2022-12-18T06:33:48.457Z,4.83
2022-12-18T06:36:15.117Z,8.25
2022-12-18T06:38:43.228Z,7.25
2022-12-18T06:41:17.100Z,7.90
2022-12-18T06:43:53.568Z,7.20
2022-12-18T06:46:22.201Z,7.50
2022-12-18T06:48:50.827Z,7.28
2022-12-18T06:51:19.194Z,7.00
2022-12-18T06:53:45.709Z,8.48
2022-12-18T06:56:13.222Z,6.90
2022-12-18T06:58:40.376Z,7.00
2022-12-18T07:01:09.722Z,8.40
2022-12-18T07:03:36.483Z,7.95
2022-12-18T07:06:03.492Z,7.78
2022-12-18T07:08:31.209Z,7.50
2022-12-18T07:10:57.920Z,8.37
2022-12-18T07:13:32.977Z,7.75
2022-12-18T07:16:17.146Z,7.90
2022-12-18T07:18:46.215Z,7.50
2022-12-18T07:21:15.884Z,6.47
2022-12-18T07:23:42.958Z,8.13
2022-12-18T07:26:13.125Z,6.47
2022-12-18T07:28:42.180Z,7.05
2022-12-18T07:31:17.369Z,7.05
2022-12-18T07:33:44.734Z,6.93
2022-12-18T07:36:11.953Z,6.47
2022-12-18T07:38:38.594Z,6.88
2022-12-18T07:41:10.455Z,6.80
2022-12-18T07:43:42.332Z,6.32
2022-12-18T07:46:09.851Z,7.47
2022-12-18T07:48:36.476Z,6.10
2022-12-18T07:51:05.179Z,7.10
2022-12-18T07:53:32.299Z,6.40
2022-12-18T07:58:52.654Z,5.13
2022-12-18T08:01:19.224Z,5.70
2022-12-18T08:03:47.721Z,5.85
2022-12-18T08:06:14.649Z,5.32
2022-12-18T08:08:43.231Z,4.70
2022-12-18T08:11:09.799Z,5.80
2022-12-18T08:13:36.458Z,4.90
2022-12-18T08:16:08.575Z,5.15
2022-12-18T08:18:36.667Z,5.50
2022-12-18T08:21:17.933Z,5.38
2022-12-18T08:23:55.188Z,4.97
2022-12-18T08:26:25.076Z,4.27
2022-12-18T08:28:51.991Z,5.15
2022-12-18T08:31:19.496Z,5.80
2022-12-18T08:33:48.537Z,5.95
2022-12-18T08:36:17.347Z,5.28
2022-12-18T08:38:44.445Z,6.40
2022-12-18T08:41:14.177Z,5.40
2022-12-18T08:44:01.161Z,5.82
2022-12-18T08:46:33.493Z,5.53
2022-12-18T08:49:00.162Z,5.70
2022-12-18T08:51:27.287Z,5.37
2022-12-18T08:53:53.804Z,5.70
2022-12-18T08:56:20.289Z,5.40
2022-12-18T08:58:46.792Z,4.82
2022-12-18T09:01:14.593Z,5.30
2022-12-18T09:03:41.676Z,6.10
2022-12-18T09:06:08.756Z,5.45
2022-12-18T09:08:38.116Z,5.97
2022-12-18T09:11:05.112Z,5.93
2022-12-18T09:13:31.698Z,6.25
2022-12-18T09:15:58.208Z,6.30
2022-12-18T09:18:25.344Z,6.07
2022-12-18T09:20:53.722Z,6.15
2022-12-18T09:23:20.833Z,6.47
2022-12-18T09:25:47.308Z,6.22
2022-12-18T09:28:15.864Z,6.47
2022-12-18T09:30:44.203Z,5.82
2022-12-18T09:33:10.798Z,6.47
2022-12-18T09:35:38.433Z,5.65
2022-12-18T09:38:05.011Z,6.38
2022-12-18T09:40:37.435Z,5.87
2022-12-18T09:43:05.904Z,6.80
2022-12-18T09:45:42.682Z,5.72
2022-12-18T09:48:35.836Z,6.60
2022-12-18T09:51:06.493Z,6.40
2022-12-18T09:53:36.313Z,6.73
2022-12-18T09:56:05.093Z,6.20
2022-12-18T09:59:01.293Z,5.93
2022-12-18T10:01:37.664Z,6.05
2022-12-18T10:04:10.003Z,5.68
2022-12-18T10:06:41.217Z,5.00
2022-12-18T10:09:13.891Z,5.50
2022-12-18T10:12:22.365Z,4.80
2022-12-18T10:15:11.663Z,4.85
2022-12-18T10:18:21.668Z,4.20
2022-12-18T10:20:50.845Z,4.47
2022-12-18T10:23:38.195Z,4.03
2022-12-18T10:26:07.609Z,3.92
2022-12-18T10:28:40.164Z,5.13
2022-12-18T10:31:08.210Z,4.72
2022-12-18T10:33:35.545Z,5.17
2022-12-18T10:36:02.009Z,4.60
2022-12-18T10:38:30.790Z,4.57
2022-12-18T10:41:02.644Z,4.50
2022-12-18T10:43:37.171Z,5.47
2022-12-18T10:46:09.727Z,3.73
2022-12-18T10:48:50.526Z,4.47
2022-12-18T10:51:38.248Z,4.30
2022-12-18T10:54:24.397Z,4.80
2022-12-18T10:56:50.847Z,4.63
2022-12-18T10:59:18.806Z,5.03
2022-12-18T11:01:52.436Z,5.05
2022-12-18T11:04:27.374Z,5.53
2022-12-18T11:07:01.242Z,4.65
2022-12-18T11:09:38.530Z,4.22
2022-12-18T11:12:25.312Z,4.77
2022-12-18T11:14:53.384Z,4.70
2022-12-18T11:17:58.315Z,4.45
2022-12-18T11:21:02.486Z,4.80
2022-12-18T11:23:30.291Z,4.35
2022-12-18T11:25:59.334Z,4.77
2022-12-18T11:28:42.405Z,4.13
2022-12-18T11:31:24.019Z,4.20
2022-12-18T11:36:50.303Z,4.63
2022-12-18T11:39:21.020Z,4.17
2022-12-18T11:42:11.132Z,4.50
2022-12-18T11:44:49.188Z,3.88
2022-12-18T11:47:31.198Z,4.28
2022-12-18T11:50:12.634Z,3.70
2022-12-18T11:52:43.654Z,3.43
2022-12-18T11:55:16.184Z,3.83
2022-12-18T11:57:49.593Z,3.35
2022-12-18T12:00:22.473Z,4.72
2022-12-18T12:03:14.795Z,3.88
2022-12-18T12:05:53.580Z,3.60
2022-12-18T12:08:39.480Z,3.90
2022-12-18T12:11:15.055Z,3.70
2022-12-18T12:14:00.572Z,3.85
2022-12-18T12:16:37.636Z,3.42
2022-12-18T12:19:30.175Z,3.80
2022-12-18T12:22:08.602Z,3.88
2022-12-18T12:25:13.382Z,4.60
2022-12-18T12:27:50.596Z,3.72
2022-12-18T12:30:23.316Z,3.55
2022-12-18T12:33:19.329Z,2.73
2022-12-18T12:36:02.621Z,3.67
2022-12-18T12:38:49.866Z,4.13
2022-12-18T12:41:40.941Z,4.40
2022-12-18T12:44:11.080Z,3.85
2022-12-18T12:46:42.931Z,3.50
2022-12-18T12:49:14.529Z,2.92
2022-12-18T12:51:43.230Z,3.47
2022-12-18T12:54:21.949Z,3.95
2022-12-18T12:57:13.310Z,3.72
2022-12-18T13:00:07.336Z,3.37
2022-12-18T13:02:46.190Z,3.95
2022-12-18T13:05:47.366Z,4.03
2022-12-18T13:08:31.108Z,3.65
2022-12-18T13:14:30.582Z,3.97
2022-12-18T13:17:27.374Z,4.18
2022-12-18T13:20:11.072Z,5.22
2022-12-18T13:22:47.210Z,5.07
2022-12-18T13:25:33.318Z,5.15
2022-12-18T13:28:07.522Z,5.30
2022-12-18T13:30:33.930Z,5.30
2022-12-18T13:33:16.019Z,3.92
2022-12-18T13:35:48.770Z,4.15
2022-12-18T13:38:34.258Z,4.18
2022-12-18T13:41:15.886Z,5.07
2022-12-18T13:43:47.635Z,5.40
2022-12-18T13:46:31.678Z,4.63
2022-12-18T13:49:02.391Z,4.57
2022-12-18T13:51:32.067Z,4.93
2022-12-18T13:54:03.455Z,4.63
2022-12-18T13:56:32.753Z,4.85
2022-12-18T13:59:25.518Z,5.00
2022-12-18T14:01:56.006Z,4.95
2022-12-18T14:04:27.671Z,5.47
2022-12-18T14:07:07.523Z,6.20
2022-12-18T14:09:37.835Z,4.45
2022-12-18T14:12:25.025Z,5.03
2022-12-18T14:14:55.185Z,3.70
2022-12-18T14:17:21.999Z,5.95
2022-12-18T14:19:52.125Z,5.97
2022-12-18T14:22:28.902Z,4.78
2022-12-18T14:25:14.044Z,6.03
2022-12-18T14:27:50.681Z,5.13
2022-12-18T14:30:36.806Z,5.38
2022-12-18T14:33:14.928Z,6.53
2022-12-18T14:35:53.859Z,2.45
2022-12-18T14:38:32.128Z,7.05
2022-12-18T14:41:00.892Z,5.75
2022-12-18T14:43:29.533Z,5.68
2022-12-18T14:45:57.032Z,5.83
2022-12-18T14:48:35.937Z,5.50
2022-12-18T14:51:28.343Z,3.40
2022-12-18T14:53:55.495Z,5.60
2022-12-18T14:56:23.839Z,7.15
2022-12-18T14:58:54.194Z,6.70
2022-12-18T15:01:32.899Z,7.50
2022-12-18T15:04:00.476Z,5.68
2022-12-18T15:06:37.156Z,7.10
2022-12-18T15:09:23.267Z,6.50
2022-12-18T15:11:57.569Z,6.30
2022-12-18T15:14:42.657Z,6.93
2022-12-18T15:17:35.203Z,6.82
2022-12-18T15:20:04.427Z,7.15
2022-12-18T15:22:36.320Z,7.43
2022-12-18T15:25:04.920Z,7.70
2022-12-18T15:27:36.709Z,8.52
2022-12-18T15:30:19.061Z,2.33
2022-12-18T15:32:45.944Z,6.50
2022-12-18T15:35:12.272Z,8.20
2022-12-18T15:37:40.426Z,8.80
2022-12-18T15:40:22.345Z,7.85
2022-12-18T15:43:08.175Z,5.72
2022-12-18T15:45:34.587Z,7.10
2022-12-18T15:48:01.051Z,7.47
2022-12-18T15:50:27.530Z,5.43
2022-12-18T15:52:59.103Z,6.28
2022-12-18T15:55:43.965Z,8.43
2022-12-18T15:58:15.315Z,9.30
2022-12-18T16:00:42.972Z,5.38
2022-12-18T16:03:10.258Z,8.10
2022-12-18T16:05:36.913Z,7.45
2022-12-18T16:08:03.389Z,5.80
2022-12-18T16:10:30.210Z,9.00
2022-12-18T16:12:56.696Z,8.85
2022-12-18T16:15:24.987Z,10.83
2022-12-18T16:17:52.605Z,8.23
2022-12-18T16:20:21.689Z,8.18
2022-12-18T16:22:48.753Z,7.15
2022-12-18T16:25:21.131Z,10.55
2022-12-18T16:27:48.005Z,9.03
2022-12-18T16:30:16.785Z,10.80
2022-12-18T16:32:43.490Z,9.75
2022-12-18T16:35:14.547Z,11.95
2022-12-18T16:37:41.769Z,4.22
2022-12-18T16:40:10.921Z,6.73
2022-12-18T16:42:41.504Z,8.45
2022-12-18T16:45:09.401Z,8.27
2022-12-18T16:47:36.091Z,7.70
2022-12-18T16:50:02.569Z,8.65
2022-12-18T16:52:30.222Z,9.83
2022-12-18T16:54:56.921Z,6.18
2022-12-18T16:57:25.560Z,6.85
2022-12-18T16:59:52.284Z,6.63
2022-12-18T17:02:28.614Z,10.80
2022-12-18T17:04:58.872Z,5.47
2022-12-18T17:07:26.382Z,10.23
2022-12-18T17:09:54.151Z,9.38
2022-12-18T17:12:21.123Z,6.03
2022-12-18T17:14:47.766Z,9.93
2022-12-18T17:17:23.025Z,7.87
2022-12-18T17:19:50.739Z,6.25
2022-12-18T17:22:17.408Z,3.88
2022-12-18T17:24:46.491Z,8.65
2022-12-18T17:27:14.197Z,10.70
2022-12-18T17:29:47.384Z,6.67
2022-12-18T17:32:17.971Z,10.65
2022-12-18T17:35:03.916Z,5.68
2022-12-18T17:37:35.267Z,7.57
2022-12-18T17:40:02.756Z,9.77
2022-12-18T17:42:30.511Z,11.97
2022-12-18T17:44:56.997Z,6.97
2022-12-18T17:47:23.549Z,7.85
2022-12-18T17:49:51.169Z,6.93
2022-12-18T17:52:18.021Z,8.57
2022-12-18T17:54:46.954Z,8.87
2022-12-18T17:57:13.889Z,11.13
2022-12-18T17:59:40.352Z,7.75
2022-12-18T18:02:07.378Z,10.18
2022-12-18T18:04:34.911Z,9.38
2022-12-18T18:07:01.444Z,4.33
2022-12-18T18:09:27.915Z,9.23
2022-12-18T18:12:13.178Z,9.93
2022-12-18T18:14:39.758Z,8.18
2022-12-18T18:17:06.221Z,9.05
2022-12-18T18:19:33.566Z,8.70
2022-12-18T18:22:00.438Z,9.65
2022-12-18T18:24:27.741Z,9.25
2022-12-18T18:26:54.230Z,7.93
2022-12-18T18:29:23.557Z,4.82
2022-12-18T18:31:50.278Z,9.07
2022-12-18T18:34:25.770Z,7.82
2022-12-18T18:36:52.362Z,8.52
2022-12-18T18:39:19.481Z,8.70
2022-12-18T18:41:47.969Z,7.10
2022-12-18T18:44:18.477Z,10.63
2022-12-18T18:46:45.206Z,5.97
2022-12-18T18:49:17.758Z,7.40
2022-12-18T18:51:44.178Z,9.93
2022-12-18T18:54:10.877Z,9.00
2022-12-18T18:59:31.607Z,7.75
2022-12-18T19:02:00.010Z,13.27
2022-12-18T19:04:31.698Z,3.63
2022-12-18T19:06:58.152Z,8.00
2022-12-18T19:09:24.709Z,8.87
2022-12-18T19:12:11.136Z,10.20
2022-12-18T19:14:37.844Z,12.27
2022-12-18T19:17:04.644Z,11.50
2022-12-18T19:19:32.222Z,12.02
2022-12-18T19:21:59.253Z,7.70
2022-12-18T19:24:25.739Z,10.30
2022-12-18T19:26:58.077Z,9.50
2022-12-18T19:29:24.975Z,17.00
2022-12-18T19:31:51.665Z,8.73
2022-12-18T19:34:18.171Z,11.10
2022-12-18T19:36:44.806Z,12.10
2022-12-18T19:39:15.538Z,11.63
2022-12-18T19:41:44.301Z,12.70
2022-12-18T19:44:13.755Z,4.30
2022-12-18T19:46:54.755Z,9.20
2022-12-18T19:49:21.271Z,6.70
2022-12-18T19:51:47.764Z,16.25
2022-12-18T19:54:18.076Z,8.15
2022-12-18T19:56:47.567Z,6.85
2022-12-18T19:59:14.136Z,18.13
2022-12-18T20:01:44.474Z,16.48
2022-12-18T20:04:12.452Z,6.82
2022-12-18T20:06:53.229Z,11.75
2022-12-18T20:09:20.603Z,10.45
2022-12-18T20:11:48.500Z,8.37
2022-12-18T20:14:19.638Z,9.80
2022-12-18T20:16:51.050Z,14.93
2022-12-18T20:19:18.543Z,13.43
2022-12-18T20:21:45.326Z,11.07
2022-12-18T20:24:12.287Z,8.70
2022-12-18T20:26:38.884Z,13.32
2022-12-18T20:29:05.536Z,12.30
2022-12-18T20:31:32.555Z,9.32
2022-12-18T20:34:01.549Z,11.07
2022-12-18T20:36:29.507Z,7.33
2022-12-18T20:39:00.542Z,12.73
2022-12-18T20:41:31.600Z,10.95
2022-12-18T20:44:04.805Z,13.25
2022-12-18T20:46:32.568Z,16.75
2022-12-18T20:48:59.179Z,17.97
2022-12-18T20:51:28.007Z,12.30
2022-12-18T20:53:55.674Z,10.70
2022-12-18T20:56:22.782Z,14.18
2022-12-18T20:58:50.523Z,16.13
2022-12-18T21:01:21.623Z,13.17
2022-12-18T21:03:48.728Z,15.18
2022-12-18T21:06:16.642Z,14.57
2022-12-18T21:08:43.208Z,7.78
2022-12-18T21:11:40.676Z,11.93
2022-12-18T21:14:13.040Z,14.60
2022-12-18T21:16:43.819Z,13.40
2022-12-18T21:19:21.245Z,15.75
2022-12-18T21:21:47.884Z,12.30
2022-12-18T21:24:14.482Z,8.48
2022-12-18T21:26:45.815Z,8.83
2022-12-18T21:29:21.670Z,12.93
2022-12-18T21:31:48.558Z,12.93
2022-12-18T21:34:25.552Z,12.75
2022-12-18T21:36:52.567Z,13.38
2022-12-18T21:39:19.305Z,6.60
2022-12-18T21:42:07.185Z,13.82
2022-12-18T21:44:38.096Z,13.43
2022-12-18T21:47:21.748Z,12.05
2022-12-18T21:49:51.266Z,6.97
2022-12-18T21:52:17.749Z,11.67
2022-12-18T21:54:44.275Z,13.45
2022-12-18T21:57:11.031Z,11.05
2022-12-18T21:59:39.868Z,7.80
2022-12-18T22:02:14.680Z,12.68
2022-12-18T22:05:20.072Z,10.07
2022-12-18T22:08:26.150Z,10.82
2022-12-18T22:10:53.042Z,13.27
2022-12-18T22:13:19.614Z,8.48
2022-12-18T22:15:47.293Z,13.25
2022-12-18T22:18:13.883Z,9.20
2022-12-18T22:20:40.314Z,14.77
2022-12-18T22:23:06.820Z,10.63
2022-12-18T22:25:34.430Z,9.02
2022-12-18T22:28:20.103Z,8.93
2022-12-18T22:30:46.595Z,8.03
2022-12-18T22:33:13.044Z,6.75
2022-12-18T22:35:39.679Z,11.93
2022-12-18T22:38:07.667Z,12.43
2022-12-18T22:40:34.118Z,8.60
2022-12-18T22:43:00.766Z,6.93
2022-12-18T22:45:27.836Z,11.57
2022-12-18T22:47:54.458Z,19.67
2022-12-18T22:50:20.990Z,11.30
2022-12-18T22:52:47.453Z,7.53
2022-12-18T22:55:13.914Z,9.17
2022-12-18T22:57:41.149Z,8.15
2022-12-18T23:00:15.662Z,10.18
2022-12-18T23:02:44.019Z,7.30
2022-12-18T23:05:10.715Z,8.68
2022-12-18T23:07:37.176Z,9.63
2022-12-18T23:10:03.940Z,12.95
2022-12-18T23:12:30.391Z,16.40
2022-12-18T23:14:58.621Z,10.63
2022-12-18T23:17:25.031Z,13.15
2022-12-18T23:19:51.448Z,13.50
2022-12-18T23:22:17.962Z,14.50
2022-12-18T23:24:44.482Z,14.23
2022-12-18T23:27:11.573Z,16.75
2022-12-18T23:29:39.369Z,20.67
2022-12-18T23:32:05.862Z,8.37
2022-12-18T23:34:32.301Z,17.30
2022-12-18T23:37:00.799Z,12.00
2022-12-18T23:39:30.100Z,18.80
2022-12-18T23:42:01.498Z,16.63
2022-12-18T23:44:28.240Z,9.33
2022-12-18T23:46:54.798Z,18.75
2022-12-18T23:49:21.448Z,14.05
2022-12-18T23:51:48.351Z,9.63
2022-12-18T23:54:14.821Z,21.15
2022-12-18T23:56:41.577Z,26.43
2022-12-18T23:59:07.990Z,17.88
